createdAt,value
2022-11-29T00:01:15.410Z,31.37
2022-11-29T00:03:42.283Z,31.60
2022-11-29T00:06:17.855Z,30.77
2022-11-29T00:08:45.638Z,31.43
2022-11-29T00:11:35.594Z,35.13
2022-11-29T00:14:02.889Z,36.27
2022-11-29T00:16:29.978Z,35.00
2022-11-29T00:18:56.921Z,36.00
2022-11-29T00:21:23.866Z,33.50
2022-11-29T00:23:50.890Z,33.60
2022-11-29T00:26:17.783Z,30.67
2022-11-29T00:28:44.748Z,33.93
2022-11-29T00:31:27.752Z,31.60
2022-11-29T00:33:54.619Z,32.80
2022-11-29T00:36:21.750Z,31.67
2022-11-29T00:38:48.711Z,32.93
2022-11-29T00:41:15.808Z,29.53
2022-11-29T00:43:42.697Z,33.30
2022-11-29T00:46:09.782Z,35.43
2022-11-29T00:48:37.365Z,31.63
2022-11-29T00:51:05.971Z,39.47
2022-11-29T00:53:34.373Z,31.63
2022-11-29T00:56:02.050Z,30.07
2022-11-29T00:58:28.948Z,33.23
2022-11-29T01:00:56.567Z,34.07
2022-11-29T01:03:24.367Z,33.20
2022-11-29T01:05:51.992Z,31.60
2022-11-29T01:08:19.270Z,32.47
2022-11-29T01:10:46.239Z,32.23
2022-11-29T01:13:14.056Z,34.63
2022-11-29T01:15:41.793Z,33.60
2022-11-29T01:18:08.777Z,31.30
2022-11-29T01:20:35.662Z,32.00
2022-11-29T01:23:02.535Z,32.90
2022-11-29T01:25:29.516Z,35.50
2022-11-29T01:27:56.415Z,31.47
2022-11-29T01:30:23.339Z,29.73
2022-11-29T01:32:50.166Z,35.73
2022-11-29T01:35:17.102Z,30.47
2022-11-29T01:37:43.937Z,33.43
2022-11-29T01:40:11.355Z,34.30
2022-11-29T01:42:38.149Z,34.17
2022-11-29T01:45:21.140Z,31.13
2022-11-29T01:47:50.348Z,28.50
2022-11-29T01:50:17.447Z,37.00
2022-11-29T01:52:45.465Z,34.33
2022-11-29T01:55:12.839Z,31.77
2022-11-29T01:57:42.666Z,35.27
2022-11-29T02:00:13.925Z,33.37
2022-11-29T02:03:01.541Z,31.53
2022-11-29T02:05:28.690Z,33.50
2022-11-29T02:07:59.132Z,35.30
2022-11-29T02:10:47.503Z,32.77
2022-11-29T02:13:19.384Z,32.67
2022-11-29T02:16:01.384Z,35.23
2022-11-29T02:18:44.708Z,32.83
2022-11-29T02:21:25.991Z,30.60
2022-11-29T02:24:21.543Z,37.47
2022-11-29T02:27:03.679Z,29.53
2022-11-29T02:29:58.201Z,33.03
2022-11-29T02:33:07.705Z,33.97
2022-11-29T02:35:58.135Z,34.13
2022-11-29T02:38:36.825Z,30.10
2022-11-29T02:41:18.389Z,33.53
2022-11-29T02:44:15.987Z,29.93
2022-11-29T02:46:55.911Z,33.47
2022-11-29T02:49:35.013Z,31.17
2022-11-29T02:52:16.997Z,31.87
2022-11-29T02:54:47.334Z,29.70
2022-11-29T02:57:37.394Z,29.00
2022-11-29T03:00:08.414Z,29.57
2022-11-29T03:02:35.252Z,30.67
2022-11-29T03:05:16.496Z,31.17
2022-11-29T03:07:49.274Z,29.93
2022-11-29T03:10:50.437Z,29.43
2022-11-29T03:13:23.870Z,28.50
2022-11-29T03:16:37.104Z,30.67
2022-11-29T03:19:12.464Z,33.63
2022-11-29T03:21:46.054Z,34.20
2022-11-29T03:24:22.780Z,28.43
2022-11-29T03:27:03.826Z,28.90
2022-11-29T03:29:40.870Z,31.50
2022-11-29T03:32:24.715Z,29.40
2022-11-29T03:35:12.976Z,31.30
2022-11-29T03:38:00.397Z,28.47
2022-11-29T03:40:40.053Z,33.87
2022-11-29T03:43:12.694Z,30.60
2022-11-29T03:45:54.126Z,31.23
2022-11-29T03:48:30.096Z,31.07
2022-11-29T03:51:03.032Z,28.00
2022-11-29T03:53:43.695Z,28.77
2022-11-29T03:56:33.567Z,29.97
2022-11-29T03:59:22.120Z,29.40
2022-11-29T04:02:18.024Z,29.77
2022-11-29T04:05:12.969Z,30.40
2022-11-29T04:08:01.050Z,27.60
2022-11-29T04:10:49.294Z,27.43
2022-11-29T04:13:56.837Z,24.77
2022-11-29T04:16:32.174Z,30.70
2022-11-29T04:19:38.653Z,25.20
2022-11-29T04:22:32.988Z,27.43
2022-11-29T04:25:11.847Z,27.30
2022-11-29T04:27:59.208Z,28.27
2022-11-29T04:30:27.484Z,26.17
2022-11-29T04:33:20.029Z,27.17
2022-11-29T04:36:02.914Z,30.17
2022-11-29T04:38:44.323Z,27.60
2022-11-29T04:41:20.127Z,32.70
2022-11-29T04:43:49.970Z,27.80
2022-11-29T04:46:41.561Z,32.50
2022-11-29T04:49:24.390Z,31.37
2022-11-29T04:52:22.189Z,35.30
2022-11-29T04:55:22.846Z,33.23
2022-11-29T04:58:13.219Z,34.03
2022-11-29T05:00:49.837Z,31.20
2022-11-29T05:03:31.265Z,30.60
2022-11-29T05:06:22.030Z,38.70
2022-11-29T05:09:00.499Z,32.63
2022-11-29T05:11:49.573Z,31.20
2022-11-29T05:14:35.183Z,34.50
2022-11-29T05:17:24.679Z,33.07
2022-11-29T05:19:57.571Z,41.33
2022-11-29T05:22:27.282Z,34.30
2022-11-29T05:25:29.369Z,32.27
2022-11-29T05:28:20.501Z,32.77
2022-11-29T05:31:08.876Z,34.10
2022-11-29T05:34:10.298Z,32.00
2022-11-29T05:36:49.354Z,33.33
2022-11-29T05:39:27.098Z,35.20
2022-11-29T05:42:12.825Z,34.50
2022-11-29T05:44:49.445Z,37.30
2022-11-29T05:47:28.259Z,37.33
2022-11-29T05:50:06.118Z,36.57
2022-11-29T05:52:55.420Z,41.33
2022-11-29T05:55:34.987Z,32.07
2022-11-29T05:58:27.099Z,33.23
2022-11-29T06:01:04.267Z,36.67
2022-11-29T06:03:46.279Z,37.80
2022-11-29T06:06:19.501Z,38.13
2022-11-29T06:08:56.924Z,46.63
2022-11-29T06:11:49.020Z,38.10
2022-11-29T06:14:37.634Z,38.77
2022-11-29T06:17:25.929Z,38.50
2022-11-29T06:19:59.320Z,35.37
2022-11-29T06:22:31.983Z,37.47
2022-11-29T06:25:02.098Z,37.67
2022-11-29T06:27:37.742Z,39.13
2022-11-29T06:30:10.311Z,37.27
2022-11-29T06:32:40.982Z,37.43
2022-11-29T06:35:35.276Z,39.00
2022-11-29T06:38:20.868Z,40.30
2022-11-29T06:40:48.329Z,39.33
2022-11-29T06:43:15.597Z,39.03
2022-11-29T06:45:51.168Z,43.80
2022-11-29T06:48:27.458Z,40.40
2022-11-29T06:51:09.229Z,41.27
2022-11-29T06:53:57.872Z,42.67
2022-11-29T06:56:38.217Z,41.80
2022-11-29T06:59:25.965Z,38.43
2022-11-29T07:02:14.030Z,41.47
2022-11-29T07:05:10.786Z,42.17
2022-11-29T07:07:37.995Z,43.93
2022-11-29T07:10:09.356Z,39.17
2022-11-29T07:12:39.174Z,40.30
2022-11-29T07:15:07.058Z,44.77
2022-11-29T07:17:49.262Z,44.00
2022-11-29T07:20:45.257Z,42.43
2022-11-29T07:23:24.028Z,41.57
2022-11-29T07:26:05.725Z,43.27
2022-11-29T07:28:32.626Z,43.60
2022-11-29T07:31:20.341Z,39.40
2022-11-29T07:34:08.301Z,41.30
2022-11-29T07:37:02.780Z,44.60
2022-11-29T07:40:03.498Z,35.93
2022-11-29T07:42:55.568Z,38.80
2022-11-29T07:45:32.209Z,41.07
2022-11-29T07:47:59.908Z,35.07
2022-11-29T07:50:28.390Z,34.77
2022-11-29T07:52:56.112Z,32.87
2022-11-29T07:55:24.743Z,38.33
2022-11-29T07:57:52.304Z,34.43
2022-11-29T08:00:20.585Z,34.10
2022-11-29T08:02:50.661Z,33.67
2022-11-29T08:05:18.016Z,35.27
2022-11-29T08:07:45.078Z,37.50
2022-11-29T08:10:14.729Z,33.77
2022-11-29T08:12:47.659Z,30.13
2022-11-29T08:15:14.829Z,32.53
2022-11-29T08:17:41.782Z,35.23
2022-11-29T08:20:11.306Z,35.90
2022-11-29T08:22:38.468Z,34.63
2022-11-29T08:25:07.243Z,37.27
2022-11-29T08:27:35.220Z,35.60
2022-11-29T08:30:02.166Z,36.33
2022-11-29T08:32:29.262Z,37.13
2022-11-29T08:34:56.204Z,36.87
2022-11-29T08:37:23.201Z,36.13
2022-11-29T08:39:50.095Z,37.00
2022-11-29T08:42:16.996Z,37.87
2022-11-29T08:44:44.145Z,34.13
2022-11-29T08:47:29.791Z,36.70
2022-11-29T08:50:02.558Z,31.80
2022-11-29T08:52:52.299Z,30.40
2022-11-29T08:55:20.303Z,35.43
2022-11-29T08:57:48.175Z,32.27
2022-11-29T09:00:16.105Z,34.37
2022-11-29T09:02:43.132Z,33.93
2022-11-29T09:05:11.435Z,32.83
2022-11-29T09:07:38.652Z,31.53
2022-11-29T09:10:08.449Z,30.73
2022-11-29T09:12:39.943Z,34.90
2022-11-29T09:15:09.443Z,29.43
2022-11-29T09:17:36.681Z,34.93
2022-11-29T09:20:05.423Z,33.07
2022-11-29T09:22:32.320Z,32.83
2022-11-29T09:24:59.083Z,32.40
2022-11-29T09:27:25.871Z,35.37
2022-11-29T09:29:52.707Z,30.67
2022-11-29T09:32:19.535Z,31.43
2022-11-29T09:34:46.691Z,32.07
2022-11-29T09:37:13.764Z,29.10
2022-11-29T09:39:41.606Z,31.47
2022-11-29T09:42:27.598Z,31.87
2022-11-29T09:45:10.946Z,31.27
2022-11-29T09:47:57.975Z,29.17
2022-11-29T09:50:31.985Z,29.80
2022-11-29T09:53:20.931Z,32.20
2022-11-29T09:56:04.574Z,32.13
2022-11-29T09:58:47.263Z,30.13
2022-11-29T10:01:21.611Z,25.90
2022-11-29T10:03:53.157Z,27.73
2022-11-29T10:06:38.874Z,29.60
2022-11-29T10:09:24.424Z,28.47
2022-11-29T10:12:10.524Z,31.13
2022-11-29T10:14:56.063Z,26.83
2022-11-29T10:17:55.611Z,29.53
2022-11-29T10:20:33.383Z,27.33
2022-11-29T10:23:26.728Z,26.53
2022-11-29T10:25:55.489Z,27.27
2022-11-29T10:28:26.444Z,28.27
2022-11-29T10:30:55.962Z,35.37
2022-11-29T10:33:35.321Z,28.83
2022-11-29T10:36:15.482Z,27.67
2022-11-29T10:38:44.675Z,24.73
2022-11-29T10:41:18.042Z,26.53
2022-11-29T10:43:45.021Z,28.00
2022-11-29T10:46:26.040Z,25.97
2022-11-29T10:48:53.590Z,32.37
2022-11-29T10:51:20.852Z,30.17
2022-11-29T10:53:49.518Z,27.17
2022-11-29T10:56:31.245Z,23.80
2022-11-29T10:59:03.184Z,26.63
2022-11-29T11:01:37.500Z,28.07
2022-11-29T11:04:07.513Z,26.37
2022-11-29T11:07:00.015Z,28.07
2022-11-29T11:09:48.266Z,25.60
2022-11-29T11:12:15.267Z,27.60
2022-11-29T11:14:44.001Z,26.37
2022-11-29T11:17:33.064Z,26.20
2022-11-29T11:20:20.383Z,25.87
2022-11-29T11:23:05.261Z,27.70
2022-11-29T11:25:39.987Z,24.90
2022-11-29T11:28:26.990Z,28.23
2022-11-29T11:30:59.895Z,25.30
2022-11-29T11:33:34.102Z,27.90
2022-11-29T11:36:19.509Z,24.83
2022-11-29T11:38:55.674Z,24.90
2022-11-29T11:41:45.701Z,26.33
2022-11-29T11:44:49.707Z,30.67
2022-11-29T11:47:35.766Z,30.03
2022-11-29T11:50:02.577Z,27.43
2022-11-29T11:52:39.889Z,24.73
2022-11-29T11:55:29.248Z,24.03
2022-11-29T11:58:09.944Z,23.33
2022-11-29T12:03:43.380Z,27.63
2022-11-29T12:06:28.719Z,25.80
2022-11-29T12:09:11.419Z,22.47
2022-11-29T12:12:04.848Z,30.57
2022-11-29T12:14:42.627Z,29.30
2022-11-29T12:17:20.466Z,26.63
2022-11-29T12:20:00.088Z,27.23
2022-11-29T12:22:34.089Z,25.93
2022-11-29T12:25:06.749Z,24.53
2022-11-29T12:27:33.727Z,23.03
2022-11-29T12:30:01.254Z,23.63
2022-11-29T12:32:49.503Z,27.23
2022-11-29T12:35:38.739Z,24.27
2022-11-29T12:38:17.631Z,24.67
2022-11-29T12:41:04.604Z,29.10
2022-11-29T12:43:43.629Z,25.93
2022-11-29T12:46:24.049Z,30.90
2022-11-29T12:49:00.822Z,25.53
2022-11-29T12:51:58.018Z,24.70
2022-11-29T12:54:52.801Z,23.70
2022-11-29T12:57:44.379Z,23.73
2022-11-29T13:00:14.271Z,25.77
2022-11-29T13:03:09.178Z,27.47
2022-11-29T13:05:56.955Z,25.00
2022-11-29T13:08:45.846Z,24.60
2022-11-29T13:11:25.111Z,27.53
2022-11-29T13:14:41.106Z,28.80
2022-11-29T13:17:05.044Z,30.33
2022-11-29T13:19:56.211Z,26.53
2022-11-29T13:22:33.125Z,25.10
2022-11-29T13:25:03.733Z,26.93
2022-11-29T13:27:39.874Z,27.80
2022-11-29T13:30:07.850Z,27.47
2022-11-29T13:32:44.770Z,24.80
2022-11-29T13:35:30.222Z,25.73
2022-11-29T13:38:05.954Z,24.43
2022-11-29T13:40:37.436Z,24.67
2022-11-29T13:43:30.889Z,25.13
2022-11-29T13:46:16.613Z,28.00
2022-11-29T13:48:48.033Z,29.30
2022-11-29T13:51:29.830Z,26.73
2022-11-29T13:53:59.816Z,25.27
2022-11-29T13:56:33.600Z,27.17
2022-11-29T13:59:05.508Z,25.20
2022-11-29T14:01:53.917Z,27.03
2022-11-29T14:04:34.645Z,27.37
2022-11-29T14:07:06.172Z,25.80
2022-11-29T14:09:49.516Z,29.67
2022-11-29T14:12:28.923Z,27.90
2022-11-29T14:15:00.727Z,25.13
2022-11-29T14:17:54.090Z,25.80
2022-11-29T14:20:24.049Z,32.30
2022-11-29T14:23:06.630Z,30.40
2022-11-29T14:26:02.698Z,28.33
2022-11-29T14:28:39.300Z,26.53
2022-11-29T14:31:10.725Z,26.57
2022-11-29T14:34:00.610Z,26.83
2022-11-29T14:36:38.334Z,28.77
2022-11-29T14:39:42.445Z,28.70
2022-11-29T14:42:21.400Z,25.90
2022-11-29T14:44:52.418Z,26.97
2022-11-29T14:47:25.656Z,26.97
2022-11-29T14:49:55.599Z,27.37
2022-11-29T14:52:35.970Z,28.47
2022-11-29T14:55:14.619Z,26.30
2022-11-29T14:57:48.012Z,29.37
2022-11-29T15:00:17.937Z,25.07
2022-11-29T15:02:48.103Z,25.13
2022-11-29T15:05:33.897Z,32.03
2022-11-29T15:08:26.879Z,25.13
2022-11-29T15:11:04.489Z,29.77
2022-11-29T15:13:34.892Z,26.13
2022-11-29T15:16:26.793Z,26.80
2022-11-29T15:19:00.664Z,28.90
2022-11-29T15:21:36.743Z,26.63
2022-11-29T15:24:12.254Z,30.17
2022-11-29T15:26:39.742Z,26.20
2022-11-29T15:29:17.160Z,26.60
2022-11-29T15:31:46.006Z,28.27
2022-11-29T15:34:48.032Z,28.83
2022-11-29T15:37:23.120Z,26.83
2022-11-29T15:40:02.608Z,29.13
2022-11-29T15:42:39.037Z,27.27
2022-11-29T15:45:46.179Z,26.03
2022-11-29T15:48:20.761Z,35.33
2022-11-29T15:50:59.536Z,27.13
2022-11-29T15:53:50.004Z,27.83
2022-11-29T15:56:30.900Z,27.13
2022-11-29T15:59:04.415Z,28.17
2022-11-29T16:01:31.877Z,27.77
2022-11-29T16:03:59.909Z,31.17
2022-11-29T16:06:39.349Z,28.57
2022-11-29T16:09:12.580Z,27.20
2022-11-29T16:11:39.913Z,29.63
2022-11-29T16:14:22.802Z,26.87
2022-11-29T16:16:53.149Z,29.33
2022-11-29T16:19:34.771Z,32.50
2022-11-29T16:22:12.952Z,28.10
2022-11-29T16:24:53.404Z,30.77
2022-11-29T16:27:21.910Z,29.70
2022-11-29T16:29:50.223Z,30.10
2022-11-29T16:32:33.681Z,29.60
2022-11-29T16:35:22.090Z,30.43
2022-11-29T16:37:49.209Z,29.47
2022-11-29T16:40:25.035Z,28.63
2022-11-29T16:43:24.014Z,28.80
2022-11-29T16:46:22.616Z,31.07
2022-11-29T16:51:47.987Z,30.20
2022-11-29T16:54:22.260Z,30.60
2022-11-29T16:56:56.644Z,27.13
2022-11-29T16:59:28.068Z,29.33
2022-11-29T17:02:07.714Z,27.83
2022-11-29T17:05:24.558Z,28.47
2022-11-29T17:08:46.503Z,31.67
2022-11-29T17:12:02.648Z,30.97
2022-11-29T17:15:25.839Z,28.20
2022-11-29T17:17:55.450Z,28.43
2022-11-29T17:20:25.421Z,29.57
2022-11-29T17:22:52.605Z,30.30
2022-11-29T17:25:19.555Z,32.30
2022-11-29T17:27:46.608Z,25.73
2022-11-29T17:30:14.296Z,27.53
2022-11-29T17:32:41.491Z,28.40
2022-11-29T17:35:08.666Z,30.50
2022-11-29T17:37:37.256Z,29.97
2022-11-29T17:40:07.453Z,27.50
2022-11-29T17:42:34.668Z,29.20
2022-11-29T17:45:01.660Z,27.70
2022-11-29T17:47:28.578Z,30.77
2022-11-29T17:49:56.777Z,25.87
2022-11-29T17:52:23.706Z,30.67
2022-11-29T17:54:50.784Z,32.43
2022-11-29T17:57:18.343Z,27.23
2022-11-29T17:59:45.466Z,28.50
2022-11-29T18:02:21.523Z,28.80
2022-11-29T18:04:48.789Z,30.07
2022-11-29T18:07:17.222Z,26.70
2022-11-29T18:09:45.072Z,29.27
2022-11-29T18:12:12.312Z,29.20
2022-11-29T18:14:40.936Z,27.13
2022-11-29T18:17:08.388Z,28.60
2022-11-29T18:19:35.390Z,28.57
2022-11-29T18:22:20.865Z,27.17
2022-11-29T18:25:10.004Z,27.53
2022-11-29T18:27:57.745Z,26.47
2022-11-29T18:30:24.633Z,27.13
2022-11-29T18:32:51.454Z,29.30
2022-11-29T18:35:23.394Z,28.27
2022-11-29T18:38:14.543Z,28.37
2022-11-29T18:40:45.775Z,29.47
2022-11-29T18:43:15.434Z,28.23
2022-11-29T18:45:54.431Z,29.23
2022-11-29T18:48:26.629Z,28.60
2022-11-29T18:50:54.393Z,28.77
2022-11-29T18:53:21.529Z,30.97
2022-11-29T18:55:58.823Z,30.37
2022-11-29T18:58:26.153Z,29.57
2022-11-29T19:00:53.305Z,29.60
2022-11-29T19:03:20.531Z,26.90
2022-11-29T19:05:54.523Z,29.00
2022-11-29T19:08:21.615Z,30.30
2022-11-29T19:10:48.822Z,27.13
2022-11-29T19:13:15.911Z,31.03
2022-11-29T19:15:50.960Z,31.23
2022-11-29T19:18:18.051Z,28.00
2022-11-29T19:20:45.061Z,27.80
2022-11-29T19:23:12.099Z,34.23
2022-11-29T19:25:39.257Z,28.83
2022-11-29T19:28:12.580Z,29.50
2022-11-29T19:30:40.928Z,29.03
2022-11-29T19:33:13.022Z,28.33
2022-11-29T19:35:39.830Z,31.30
2022-11-29T19:38:06.631Z,30.27
2022-11-29T19:40:33.692Z,29.93
2022-11-29T19:43:00.595Z,32.67
2022-11-29T19:45:27.445Z,28.87
2022-11-29T19:47:54.504Z,28.10
2022-11-29T19:50:21.363Z,27.57
2022-11-29T19:52:48.197Z,26.67
2022-11-29T19:55:15.108Z,29.17
2022-11-29T19:57:41.941Z,28.07
2022-11-29T20:00:09.233Z,27.30
2022-11-29T20:02:36.114Z,28.33
2022-11-29T20:05:03.170Z,29.27
2022-11-29T20:07:30.267Z,33.00
2022-11-29T20:09:57.159Z,25.80
2022-11-29T20:12:23.987Z,28.87
2022-11-29T20:14:50.794Z,26.47
2022-11-29T20:17:17.850Z,27.57
2022-11-29T20:19:45.102Z,26.10
2022-11-29T20:22:16.254Z,24.87
2022-11-29T20:24:49.852Z,27.17
2022-11-29T20:27:19.465Z,27.10
2022-11-29T20:29:46.514Z,28.50
2022-11-29T20:32:13.913Z,25.70
2022-11-29T20:34:41.184Z,25.27
2022-11-29T20:37:08.579Z,43.77
2022-11-29T20:40:11.971Z,28.13
2022-11-29T20:43:12.695Z,25.70
2022-11-29T20:45:45.795Z,27.00
2022-11-29T20:48:21.901Z,25.63
2022-11-29T20:51:01.265Z,24.00
2022-11-29T20:53:44.041Z,24.07
2022-11-29T20:56:11.792Z,26.00
2022-11-29T20:58:39.516Z,24.00
2022-11-29T21:01:11.122Z,24.27
2022-11-29T21:03:38.599Z,24.13
2022-11-29T21:06:09.559Z,25.80
2022-11-29T21:08:51.210Z,24.43
2022-11-29T21:11:22.504Z,24.73
2022-11-29T21:13:50.086Z,23.30
2022-11-29T21:16:17.642Z,22.97
2022-11-29T21:18:44.995Z,25.10
2022-11-29T21:21:37.443Z,24.53
2022-11-29T21:24:41.317Z,24.30
2022-11-29T21:27:14.208Z,22.63
2022-11-29T21:29:41.339Z,26.30
2022-11-29T21:32:21.413Z,25.83
2022-11-29T21:34:49.926Z,25.30
2022-11-29T21:37:20.223Z,26.20
2022-11-29T21:39:48.479Z,26.67
2022-11-29T21:42:15.727Z,22.93
2022-11-29T21:44:42.517Z,22.87
2022-11-29T21:47:09.493Z,25.10
2022-11-29T21:49:36.368Z,26.33
2022-11-29T21:52:03.468Z,22.23
2022-11-29T21:54:30.329Z,24.40
2022-11-29T21:56:57.370Z,28.60
2022-11-29T21:59:24.955Z,25.03
2022-11-29T22:01:54.522Z,24.03
2022-11-29T22:04:21.845Z,22.17
2022-11-29T22:06:48.767Z,24.80
2022-11-29T22:09:15.648Z,23.93
2022-11-29T22:11:42.468Z,22.67
2022-11-29T22:14:14.983Z,23.80
2022-11-29T22:16:44.521Z,23.73
2022-11-29T22:19:29.128Z,26.70
2022-11-29T22:22:02.197Z,27.27
2022-11-29T22:24:31.833Z,21.80
2022-11-29T22:27:03.199Z,22.47
2022-11-29T22:29:32.538Z,26.07
2022-11-29T22:32:23.444Z,23.10
2022-11-29T22:34:57.732Z,24.77
2022-11-29T22:37:42.717Z,24.57
2022-11-29T22:40:14.013Z,25.07
2022-11-29T22:43:34.587Z,23.73
2022-11-29T22:46:29.819Z,23.63
2022-11-29T22:49:03.402Z,25.23
2022-11-29T22:51:53.422Z,25.60
2022-11-29T22:54:26.737Z,24.33
2022-11-29T22:56:53.675Z,24.00
2022-11-29T22:59:20.613Z,23.20
2022-11-29T23:01:48.205Z,23.43
2022-11-29T23:04:15.762Z,25.10
2022-11-29T23:06:44.859Z,24.07
2022-11-29T23:09:17.370Z,24.47
2022-11-29T23:11:51.061Z,25.83
2022-11-29T23:14:19.355Z,22.87
2022-11-29T23:16:46.312Z,27.23
2022-11-29T23:19:13.565Z,24.03
2022-11-29T23:21:44.654Z,26.57
2022-11-29T23:24:11.985Z,26.23
2022-11-29T23:26:43.907Z,24.30
2022-11-29T23:29:13.732Z,24.90
2022-11-29T23:31:41.294Z,24.67
2022-11-29T23:34:08.750Z,23.20
2022-11-29T23:36:37.267Z,27.90
2022-11-29T23:39:10.174Z,25.37
2022-11-29T23:41:40.378Z,23.17
2022-11-29T23:44:09.343Z,30.60
2022-11-29T23:46:51.483Z,26.67
2022-11-29T23:49:20.793Z,23.93
2022-11-29T23:51:47.854Z,26.20
2022-11-29T23:54:14.778Z,24.30
2022-11-29T23:56:41.665Z,23.37
2022-11-29T23:59:08.479Z,26.43
